Time;durP1;ratioP1;P1;durP2;ratioP2;P2;SDS_P1;SDS_P2;PMS_P1;PMS_P2;Temp;Humidity;BMP_temperature;BMP_pressure;BME280_temperature;BME280_humidity;BME280_pressure;Samples;Min_cycle;Max_cycle;Signal;HPM_P1;HPM_P2
2022/05/18 00:02:24;;;;;;;1.75;0.50;;;;;;;19.66;73.80;101321.47;7390906;19;20015;-69
2022/05/18 00:04:50;;;;;;;3.20;0.43;;;;;;;19.59;72.96;101324.13;7390447;19;20018;-69
2022/05/18 00:07:17;;;;;;;2.95;0.73;;;;;;;19.51;73.94;101316.25;7387253;19;20468;-68
2022/05/18 00:09:45;;;;;;;4.45;0.77;;;;;;;19.50;73.94;101319.97;7390567;19;20014;-68
2022/05/18 00:12:12;;;;;;;1.63;0.30;;;;;;;19.49;74.44;101323.66;7390964;19;20043;-69
2022/05/18 00:17:07;;;;;;;1.88;0.50;;;;;;;19.47;73.73;101329.19;7389995;19;20046;-69
2022/05/18 00:19:34;;;;;;;3.90;0.40;;;;;;;19.43;73.57;101335.09;7393318;19;20338;-69
2022/05/18 00:22:03;;;;;;;2.85;0.40;;;;;;;19.36;73.68;101336.91;7389579;19;20003;-69
2022/05/18 00:24:30;;;;;;;2.33;0.40;;;;;;;19.33;74.74;101342.66;7388560;19;20369;-68
2022/05/18 00:26:58;;;;;;;1.95;0.43;;;;;;;19.21;74.42;101339.69;7388789;19;20011;-68
2022/05/18 00:29:25;;;;;;;2.38;0.43;;;;;;;19.13;74.25;101343.38;7391361;19;20114;-68
2022/05/18 00:31:52;;;;;;;2.22;0.50;;;;;;;19.09;74.68;101344.78;7389549;19;20456;-70
2022/05/18 00:34:19;;;;;;;3.50;0.30;;;;;;;19.05;74.52;101340.00;7391546;19;20743;-69
2022/05/18 00:36:46;;;;;;;2.30;0.50;;;;;;;19.06;74.88;101339.81;7388076;19;20458;-68
2022/05/18 00:39:14;;;;;;;1.20;0.30;;;;;;;19.04;74.91;101341.88;7388248;19;20022;-69
2022/05/18 00:41:41;;;;;;;1.63;0.50;;;;;;;19.00;75.73;101350.44;7390009;19;20031;-68
2022/05/18 00:44:08;;;;;;;1.80;0.40;;;;;;;18.96;75.33;101347.34;7389697;19;20475;-68
2022/05/18 00:46:36;;;;;;;3.42;0.50;;;;;;;18.91;75.45;101349.78;7389715;19;20018;-70
2022/05/18 00:49:07;;;;;;;2.90;0.30;;;;;;;18.89;75.64;101351.00;7386419;19;20792;-68
2022/05/18 00:51:39;;;;;;;3.92;0.50;;;;;;;18.86;75.32;101352.19;7391245;19;20014;-68
2022/05/18 00:54:11;;;;;;;2.75;0.32;;;;;;;18.84;75.62;101353.44;7385599;19;20014;-68
2022/05/18 00:56:44;;;;;;;2.80;0.40;;;;;;;18.80;75.53;101361.78;7387415;19;20002;-68
2022/05/18 00:59:13;;;;;;;2.58;0.40;;;;;;;18.79;75.50;101357.47;7389603;19;20377;-68
2022/05/18 01:01:41;;;;;;;2.78;0.45;;;;;;;18.80;75.72;101356.47;7389142;19;20472;-68
2022/05/18 01:04:11;;;;;;;1.95;0.40;;;;;;;18.82;75.33;101361.59;7390249;19;20018;-69
2022/05/18 01:06:44;;;;;;;3.35;0.38;;;;;;;18.84;74.92;101359.59;7391146;19;20007;-69
2022/05/18 01:09:17;;;;;;;2.33;0.40;;;;;;;18.84;75.05;101356.91;7389246;19;20014;-68
2022/05/18 01:11:45;;;;;;;4.65;0.40;;;;;;;18.80;74.51;101372.47;7386977;19;20014;-69
2022/05/18 01:14:18;;;;;;;4.30;0.60;;;;;;;18.80;74.61;101368.97;7390081;19;20126;-68
2022/05/18 01:16:46;;;;;;;2.38;0.40;;;;;;;18.73;75.33;101370.78;7386597;19;20006;-69
2022/05/18 01:19:19;;;;;;;1.95;0.32;;;;;;;18.68;74.63;101379.34;7389888;19;20006;-67
2022/05/18 01:22:06;;;;;;;;;;;;;;;18.60;74.77;101378.63;7393171;19;20535;-67
2022/05/18 01:24:46;;;;;;;2.65;0.30;;;;;;;18.53;74.56;101391.06;7389269;19;20276;-70
2022/05/18 01:27:13;;;;;;;3.35;0.50;;;;;;;18.51;74.95;101380.59;7387424;19;20583;-68
2022/05/18 01:29:41;;;;;;;1.67;0.30;;;;;;;18.44;75.31;101389.56;7386950;19;20456;-69
2022/05/18 01:32:13;;;;;;;1.23;0.40;;;;;;;18.40;76.03;101402.41;7388536;19;20018;-70
2022/05/18 01:34:42;;;;;;;3.22;0.50;;;;;;;18.39;75.87;101390.91;7387944;19;20017;-69
2022/05/18 01:37:10;;;;;;;2.65;0.40;;;;;;;18.42;75.12;101396.91;7389273;19;20367;-69
2022/05/18 01:39:46;;;;;;;2.83;0.30;;;;;;;18.37;74.71;101400.97;7385403;19;20018;-68
2022/05/18 01:42:21;;;;;;;1.33;0.38;;;;;;;18.34;74.94;101398.66;7387818;19;20073;-68
2022/05/18 01:44:49;;;;;;;3.20;0.75;;;;;;;18.30;75.05;101396.56;7392047;19;20030;-69
2022/05/18 01:47:15;;;;;;;2.20;0.35;;;;;;;18.25;74.83;101407.78;7387436;19;20029;-68
2022/05/18 01:49:43;;;;;;;2.42;0.30;;;;;;;18.20;75.72;101406.72;7390673;19;20062;-68
2022/05/18 01:52:11;;;;;;;2.25;0.40;;;;;;;18.08;75.31;101406.34;7388583;19;20022;-68
2022/05/18 01:54:42;;;;;;;1.70;0.30;;;;;;;17.94;75.63;101409.88;7389974;19;20755;-68
2022/05/18 01:57:10;;;;;;;1.00;0.20;;;;;;;17.89;76.13;101404.28;7387131;19;20031;-67
2022/05/18 01:59:38;;;;;;;2.58;0.40;;;;;;;17.92;76.28;101406.59;7387114;19;20053;-68
2022/05/18 02:02:06;;;;;;;2.45;0.30;;;;;;;17.93;75.91;101410.91;7388730;19;20014;-68
2022/05/18 02:04:34;;;;;;;2.35;0.20;;;;;;;17.82;74.96;101412.22;7387021;19;20442;-69
2022/05/18 02:07:01;;;;;;;1.52;0.28;;;;;;;17.73;75.82;101417.81;7387221;19;20093;-68
2022/05/18 02:09:29;;;;;;;2.88;0.28;;;;;;;17.71;76.48;101423.34;7388143;19;20086;-68
2022/05/18 02:12:01;;;;;;;1.55;0.40;;;;;;;17.74;76.42;101419.47;7385650;19;20014;-68
2022/05/18 02:14:28;;;;;;;1.17;0.20;;;;;;;17.69;75.73;101416.53;7384943;19;20011;-67
2022/05/18 02:16:59;;;;;;;0.95;0.30;;;;;;;17.72;76.12;101417.00;7383829;19;20082;-69
2022/05/18 02:19:29;;;;;;;1.67;0.30;;;;;;;17.72;75.79;101422.34;7387824;19;20119;-68
2022/05/18 02:22:00;;;;;;;4.18;1.00;;;;;;;17.60;75.77;101423.78;7386057;19;20030;-68
2022/05/18 02:24:29;;;;;;;2.30;0.38;;;;;;;17.54;77.12;101419.16;7385027;19;20021;-69
2022/05/18 02:26:57;;;;;;;1.27;0.20;;;;;;;17.56;76.58;101422.47;7383778;19;20025;-68
2022/05/18 02:29:24;;;;;;;2.58;0.30;;;;;;;17.57;75.73;101429.47;7383322;19;20540;-68
2022/05/18 02:31:51;;;;;;;2.13;0.20;;;;;;;17.61;75.72;101436.09;7384947;19;20010;-69
2022/05/18 02:34:19;;;;;;;2.58;0.38;;;;;;;17.61;75.56;101433.44;7395400;19;20033;-70
2022/05/18 02:36:48;;;;;;;1.92;0.30;;;;;;;17.59;75.23;101429.25;7391417;19;20117;-67
2022/05/18 02:39:16;;;;;;;5.13;0.70;;;;;;;17.56;75.46;101429.63;7394790;19;20134;-68
2022/05/18 02:41:42;;;;;;;1.80;0.20;;;;;;;17.47;75.14;101434.22;7393391;19;20106;-68
2022/05/18 02:44:09;;;;;;;1.00;0.20;;;;;;;17.39;75.62;101439.63;7394811;19;20369;-68
2022/05/18 02:46:37;;;;;;;3.47;0.47;;;;;;;17.34;76.17;101439.34;7390348;19;20026;-68
2022/05/18 02:49:04;;;;;;;1.02;0.20;;;;;;;17.33;75.99;101441.16;7392135;19;20475;-69
2022/05/18 02:51:32;;;;;;;1.13;0.20;;;;;;;17.34;76.04;101453.47;7392165;19;20029;-68
2022/05/18 02:54:01;;;;;;;1.80;0.30;;;;;;;17.38;76.30;101452.09;7396632;19;20511;-68
2022/05/18 02:56:28;;;;;;;2.85;0.60;;;;;;;17.41;76.57;101448.25;7391233;19;20377;-69
2022/05/18 02:58:56;;;;;;;3.38;0.40;;;;;;;17.42;76.29;101460.56;7393138;19;20333;-70
2022/05/18 03:01:26;;;;;;;2.22;0.40;;;;;;;17.40;75.98;101467.88;7391434;19;20034;-70
2022/05/18 03:06:24;;;;;;;1.77;0.30;;;;;;;17.33;76.34;101464.28;7392265;19;20018;-68
2022/05/18 03:08:53;;;;;;;1.67;0.28;;;;;;;17.25;75.64;101469.69;7391557;19;20015;-69
2022/05/18 03:11:20;;;;;;;3.42;0.30;;;;;;;17.27;76.18;101468.50;7393094;19;20035;-70
2022/05/18 03:13:48;;;;;;;3.83;0.50;;;;;;;17.30;77.00;101465.50;7388913;19;20011;-69
2022/05/18 03:16:16;;;;;;;1.73;0.30;;;;;;;17.28;75.89;101464.84;7390794;19;20021;-68
2022/05/18 03:18:43;;;;;;;1.00;0.30;;;;;;;17.21;76.38;101471.91;7392116;19;20014;-68
2022/05/18 03:23:41;;;;;;;1.25;0.30;;;;;;;17.18;76.45;101477.56;7391612;19;20018;-69
2022/05/18 03:26:10;;;;;;;2.70;0.30;;;;;;;17.18;76.62;101477.56;7390711;19;20011;-68
2022/05/18 03:28:38;;;;;;;4.43;0.57;;;;;;;17.13;76.94;101481.75;7392223;19;20018;-68
2022/05/18 03:31:06;;;;;;;1.25;0.30;;;;;;;17.08;76.89;101487.63;7394821;19;20477;-69
2022/05/18 03:33:35;;;;;;;2.58;0.40;;;;;;;16.99;77.25;101489.53;7392547;19;20014;-68
2022/05/18 03:36:03;;;;;;;1.77;0.32;;;;;;;16.96;77.28;101486.41;7392840;19;20010;-68
2022/05/18 03:38:32;;;;;;;0.80;0.30;;;;;;;16.90;77.52;101490.59;7391782;19;20037;-69
2022/05/18 03:40:59;;;;;;;3.35;0.35;;;;;;;16.92;77.49;101493.06;7389201;19;20027;-68
2022/05/18 03:43:26;;;;;;;1.88;0.38;;;;;;;16.92;77.49;101490.41;7391114;19;20023;-69
2022/05/18 03:45:53;;;;;;;3.08;0.88;;;;;;;16.96;78.72;101487.25;7392136;19;20298;-68
2022/05/18 03:48:21;;;;;;;1.02;0.30;;;;;;;16.95;78.01;101498.03;7388350;19;20034;-69
2022/05/18 03:50:49;;;;;;;2.60;0.30;;;;;;;16.94;77.82;101493.72;7391953;19;20011;-70
2022/05/18 03:53:16;;;;;;;1.83;0.32;;;;;;;16.96;77.70;101500.53;7389831;19;20006;-67
2022/05/18 03:55:44;;;;;;;1.88;0.20;;;;;;;16.95;77.37;101503.34;7390405;19;20380;-69
2022/05/18 03:58:13;;;;;;;3.50;0.20;;;;;;;16.92;77.23;101490.41;7388722;19;20017;-68
2022/05/18 04:00:41;;;;;;;1.73;0.40;;;;;;;16.87;77.07;101500.75;7394804;19;20011;-69
2022/05/18 04:03:10;;;;;;;1.30;0.38;;;;;;;16.87;78.47;101506.06;7393341;19;20034;-67
2022/05/18 04:05:40;;;;;;;1.52;0.30;;;;;;;16.87;77.54;101508.72;7391494;19;20372;-68
2022/05/18 04:08:08;;;;;;;1.60;0.30;;;;;;;16.88;77.46;101513.88;7389622;19;20010;-67
2022/05/18 04:10:38;;;;;;;2.05;0.52;;;;;;;16.84;77.45;101509.91;7389548;19;20014;-67
2022/05/18 04:13:07;;;;;;;1.95;0.30;;;;;;;16.84;77.65;101511.75;7390702;19;20122;-69
2022/05/18 04:15:34;;;;;;;3.20;0.30;;;;;;;16.79;77.52;101508.78;7390625;19;20022;-69
2022/05/18 04:18:01;;;;;;;4.45;1.25;;;;;;;16.73;78.18;101512.97;7390899;19;20022;-69
2022/05/18 04:20:28;;;;;;;4.07;0.30;;;;;;;16.71;78.21;101514.16;7391340;19;20035;-69
2022/05/18 04:22:56;;;;;;;3.20;0.30;;;;;;;16.65;78.23;101518.34;7390097;19;20025;-68
2022/05/18 04:25:26;;;;;;;1.83;0.20;;;;;;;16.58;78.33;101518.22;7389809;19;20499;-68
2022/05/18 04:27:55;;;;;;;1.17;0.30;;;;;;;16.58;78.52;101518.22;7393968;19;20018;-68
2022/05/18 04:30:24;;;;;;;3.35;0.30;;;;;;;16.58;78.38;101522.66;7392746;19;20383;-69
2022/05/18 04:32:53;;;;;;;2.17;0.22;;;;;;;16.57;78.33;101528.97;7392206;19;20010;-69
2022/05/18 04:35:24;;;;;;;1.10;0.30;;;;;;;16.58;79.22;101526.19;7391674;19;20099;-69
2022/05/18 04:40:23;;;;;;;2.25;0.20;;;;;;;16.57;78.18;101524.50;7388113;19;20023;-68
2022/05/18 04:42:51;;;;;;;2.13;0.30;;;;;;;16.58;77.91;101536.81;7387501;19;20033;-67
2022/05/18 04:45:20;;;;;;;2.40;0.20;;;;;;;16.57;77.76;101537.78;7390153;19;20022;-68
2022/05/18 04:47:49;;;;;;;3.05;0.60;;;;;;;16.59;77.78;101542.97;7387467;19;20006;-68
2022/05/18 04:50:17;;;;;;;2.28;0.40;;;;;;;16.58;77.91;101544.78;7390194;19;20010;-69
2022/05/18 04:52:45;;;;;;;1.30;0.30;;;;;;;16.56;78.21;101549.41;7387084;19;20471;-69
2022/05/18 04:55:12;;;;;;;3.10;0.30;;;;;;;16.50;78.00;101558.09;7388489;19;20026;-69
2022/05/18 04:57:40;;;;;;;1.35;0.30;;;;;;;16.46;77.95;101553.28;7386798;19;20017;-69
2022/05/18 05:00:10;;;;;;;2.05;0.20;;;;;;;16.40;78.01;101552.16;7388191;19;20042;-68
2022/05/18 05:02:38;;;;;;;4.45;0.25;;;;;;;16.40;78.24;101551.31;7388752;19;20035;-68
2022/05/18 05:05:08;;;;;;;2.33;0.20;;;;;;;16.39;78.51;101558.47;7389838;19;20021;-69
2022/05/18 05:07:35;;;;;;;3.88;0.40;;;;;;;16.39;79.08;101560.28;7386298;19;20014;-68
2022/05/18 05:10:04;;;;;;;3.90;0.30;;;;;;;16.40;78.65;101565.44;7390305;19;20038;-68
2022/05/18 05:12:31;;;;;;;3.10;0.25;;;;;;;16.42;78.15;101573.22;7388211;19;20020;-68
2022/05/18 05:14:59;;;;;;;2.97;0.25;;;;;;;16.42;77.90;101570.56;7388112;19;20019;-69
2022/05/18 05:17:26;;;;;;;3.80;0.30;;;;;;;16.43;78.09;101578.38;7391964;19;20056;-69
2022/05/18 05:19:53;;;;;;;2.55;0.30;;;;;;;16.39;77.80;101568.25;7392226;19;20010;-69
2022/05/18 05:22:20;;;;;;;3.65;1.05;;;;;;;16.33;78.22;101574.25;7386274;19;20002;-69
2022/05/18 05:24:47;;;;;;;2.33;0.40;;;;;;;16.34;78.35;101583.88;7386597;19;20540;-69
2022/05/18 05:27:14;;;;;;;0.88;0.47;;;;;;;16.34;78.05;101590.03;7387700;19;20083;-68
2022/05/18 05:29:43;;;;;;;2.08;0.30;;;;;;;16.31;77.91;101587.69;7386406;19;20114;-68
2022/05/18 05:32:09;;;;;;;3.00;0.30;;;;;;;16.36;77.82;101589.84;7389265;19;20035;-70
2022/05/18 05:34:37;;;;;;;1.42;0.35;;;;;;;16.38;77.78;101601.13;7385089;19;20011;-70
2022/05/18 05:37:03;;;;;;;3.25;0.55;;;;;;;16.41;77.74;101604.25;7388880;19;20026;-69
2022/05/18 05:39:31;;;;;;;3.97;0.60;;;;;;;16.45;77.32;101605.59;7385959;19;20048;-69
2022/05/18 05:41:57;;;;;;;5.30;0.80;;;;;;;16.49;77.19;101611.41;7385545;19;20495;-68
2022/05/18 05:44:24;;;;;;;4.47;0.60;;;;;;;16.53;76.87;101608.22;7387778;19;20360;-69
2022/05/18 05:46:51;;;;;;;3.50;0.70;;;;;;;16.55;76.86;101608.88;7385276;19;20010;-68
2022/05/18 05:49:19;;;;;;;4.88;0.50;;;;;;;16.54;76.57;101615.19;7387925;19;20317;-70
2022/05/18 05:51:47;;;;;;;1.65;0.40;;;;;;;16.54;76.79;101627.66;7385288;19;20017;-68
2022/05/18 05:54:14;;;;;;;2.00;0.30;;;;;;;16.52;76.95;101619.00;7387700;19;20026;-68
2022/05/18 05:56:41;;;;;;;5.25;0.47;;;;;;;16.54;76.49;101623.16;7384820;19;20003;-68
2022/05/18 05:59:09;;;;;;;4.28;0.70;;;;;;;16.56;76.30;101623.81;7388790;19;20515;-69
2022/05/18 06:01:36;;;;;;;3.55;0.30;;;;;;;16.54;76.33;101617.03;7385871;19;20133;-68
2022/05/18 06:04:07;;;;;;;3.67;0.50;;;;;;;16.53;76.36;101626.81;7390606;19;20077;-68
2022/05/18 06:06:37;;;;;;;1.63;0.30;;;;;;;16.55;76.42;101626.66;7385575;19;20078;-70
2022/05/18 06:11:36;;;;;;;8.80;0.88;;;;;;;16.63;76.19;101627.47;7394974;19;20621;-68
2022/05/18 06:14:04;;;;;;;3.58;0.40;;;;;;;16.64;75.90;101628.31;7393128;19;20106;-68
2022/05/18 06:16:31;;;;;;;3.67;0.50;;;;;;;16.68;75.78;101632.28;7393637;19;20014;-67
2022/05/18 06:19:01;;;;;;;2.42;0.30;;;;;;;16.71;75.87;101631.91;7395211;19;20007;-68
2022/05/18 06:21:27;;;;;;;2.35;0.28;;;;;;;16.73;75.94;101645.88;7389547;19;20015;-68
2022/05/18 06:23:55;;;;;;;4.15;0.50;;;;;;;16.76;75.84;101644.72;7392622;19;20011;-70
2022/05/18 06:26:24;;;;;;;6.10;0.68;;;;;;;16.72;75.56;101644.19;7395687;19;20010;-69
2022/05/18 06:28:52;;;;;;;3.47;0.40;;;;;;;16.74;76.02;101647.53;7396712;19;20038;-69
2022/05/18 06:31:20;;;;;;;3.22;0.35;;;;;;;16.77;75.40;101647.16;7397084;19;20021;-69
2022/05/18 06:33:48;;;;;;;3.05;0.52;;;;;;;16.77;75.65;101641.03;7390461;19;20011;-69
2022/05/18 06:36:16;;;;;;;5.40;0.68;;;;;;;16.77;75.62;101654.31;7395836;19;20025;-69
2022/05/18 06:38:51;;;;;;;4.70;0.57;;;;;;;16.80;75.40;101659.31;7394601;19;20042;-70
2022/05/18 06:41:55;;;;;;;6.93;1.20;;;;;;;16.83;75.64;101653.63;7394103;19;20354;-69
2022/05/18 06:44:34;;;;;;;4.03;0.50;;;;;;;16.83;75.92;101662.44;7389527;19;20014;-70
2022/05/18 06:47:12;;;;;;;2.78;0.45;;;;;;;16.86;75.62;101667.44;7386177;19;20051;-68
2022/05/18 06:49:40;;;;;;;3.47;1.05;;;;;;;16.91;75.67;101659.75;7391453;19;20018;-68
2022/05/18 06:52:09;;;;;;;5.25;0.50;;;;;;;16.94;75.04;101670.03;7392733;19;20022;-69
2022/05/18 06:54:36;;;;;;;4.53;0.40;;;;;;;16.99;74.74;101665.03;7396800;19;20009;-68
2022/05/18 06:57:20;;;;;;;5.35;0.95;;;;;;;17.05;75.60;101667.00;7391011;19;20014;-69
2022/05/18 06:59:47;;;;;;;9.88;0.75;;;;;;;17.15;76.28;101666.78;7395676;19;20015;-67
2022/05/18 07:02:14;;;;;;;2.50;0.75;;;;;;;17.24;77.33;101668.38;7392810;19;20017;-68
2022/05/18 07:04:42;;;;;;;4.38;1.88;;;;;;;17.26;75.26;101662.88;7391728;19;20027;-68
2022/05/18 07:07:18;;;;;;;4.47;0.60;;;;;;;17.26;75.90;101668.22;7391853;19;20028;-69
2022/05/18 07:09:48;;;;;;;2.28;0.52;;;;;;;17.28;74.41;101671.50;7392707;19;20014;-68
2022/05/18 07:12:18;;;;;;;5.25;0.60;;;;;;;17.28;73.96;101674.16;7390655;19;20329;-69
2022/05/18 07:14:46;;;;;;;3.30;0.50;;;;;;;17.33;74.75;101672.63;7391061;19;20022;-69
2022/05/18 07:17:19;;;;;;;7.45;0.40;;;;;;;17.41;73.06;101667.28;7391404;19;20045;-68
2022/05/18 07:19:47;;;;;;;3.83;0.40;;;;;;;17.42;72.65;101673.44;7392190;19;20033;-68
2022/05/18 07:22:14;;;;;;;6.53;0.50;;;;;;;17.38;71.75;101672.94;7390694;19;20006;-68
2022/05/18 07:24:42;;;;;;;2.20;0.40;;;;;;;17.41;72.58;101674.44;7390689;19;20010;-67
2022/05/18 07:27:09;;;;;;;4.40;0.40;;;;;;;17.47;72.38;101673.72;7387918;19;20447;-69
2022/05/18 07:29:36;;;;;;;5.25;0.50;;;;;;;17.51;72.48;101675.84;7390844;19;20042;-68
2022/05/18 07:34:36;;;;;;;3.75;0.40;;;;;;;17.65;73.10;101684.94;7392541;19;20511;-69
2022/05/18 07:37:04;;;;;;;4.53;0.60;;;;;;;17.65;71.25;101682.28;7393262;19;20470;-68
2022/05/18 07:39:32;;;;;;;3.05;0.45;;;;;;;17.60;71.02;101683.81;7388882;19;20018;-67
2022/05/18 07:41:59;;;;;;;5.55;0.47;;;;;;;17.59;71.10;101679.44;7390008;19;20471;-69
2022/05/18 07:44:27;;;;;;;5.57;0.50;;;;;;;17.56;71.08;101675.31;7391535;19;20014;-68
2022/05/18 07:46:55;;;;;;;7.68;0.47;;;;;;;17.64;71.25;101677.13;7392736;19;20010;-68
2022/05/18 07:49:22;;;;;;;5.45;0.40;;;;;;;17.78;70.45;101684.31;7390747;19;20043;-69
2022/05/18 07:51:50;;;;;;;5.72;0.43;;;;;;;17.93;69.60;101683.34;7392150;19;20011;-69
2022/05/18 07:54:17;;;;;;;4.60;0.30;;;;;;;17.99;68.43;101689.81;7389450;19;19998;-69
2022/05/18 07:56:45;;;;;;;4.25;0.40;;;;;;;17.96;70.32;101687.50;7392642;19;20014;-69
2022/05/18 07:59:14;;;;;;;3.40;0.40;;;;;;;17.89;69.36;101683.91;7388505;19;20011;-69
2022/05/18 08:01:42;;;;;;;4.78;0.50;;;;;;;17.98;68.84;101692.66;7388871;19;20069;-68
2022/05/18 08:04:10;;;;;;;5.38;0.50;;;;;;;18.01;69.11;101695.78;7390233;19;20021;-69
2022/05/18 08:06:38;;;;;;;3.72;0.30;;;;;;;18.05;70.55;101691.75;7388489;19;20030;-68
2022/05/18 08:09:06;;;;;;;4.13;0.32;;;;;;;18.08;69.12;101691.38;7393439;19;20019;-69
2022/05/18 08:16:34;;;;;;;3.40;0.30;;;;;;;18.23;68.32;101704.75;7392960;19;20577;-69
2022/05/18 08:19:06;;;;;;;7.75;1.10;;;;;;;18.28;68.30;101694.38;7389034;19;20010;-69
2022/05/18 08:24:07;;;;;;;8.13;0.57;;;;;;;18.39;67.60;101702.75;7391535;19;20037;-70
2022/05/18 08:26:35;;;;;;;6.38;0.50;;;;;;;18.43;66.67;101705.06;7390039;19;20015;-69
2022/05/18 08:29:04;;;;;;;5.30;0.40;;;;;;;18.43;66.14;101710.38;7389277;19;20003;-69
2022/05/18 08:31:32;;;;;;;7.97;0.32;;;;;;;18.41;66.32;101717.72;7390044;19;20018;-68
2022/05/18 08:34:00;;;;;;;4.40;0.50;;;;;;;18.41;68.31;101707.91;7390298;19;20027;-69
2022/05/18 08:36:31;;;;;;;4.72;0.40;;;;;;;18.41;66.84;101709.72;7388948;19;20011;-68
2022/05/18 08:39:02;;;;;;;2.38;0.40;;;;;;;18.46;66.78;101700.19;7393490;19;20142;-70
2022/05/18 08:41:46;;;;;;;3.97;0.32;;;;;;;18.51;66.67;101702.28;7387838;19;20458;-69
2022/05/18 08:44:28;;;;;;;5.82;0.63;;;;;;;18.53;66.04;101705.63;7388401;19;20010;-69
2022/05/18 08:47:03;;;;;;;2.03;0.28;;;;;;;18.58;67.17;101713.94;7387860;19;20006;-69
2022/05/18 08:49:33;;;;;;;6.38;0.40;;;;;;;18.67;67.23;101712.81;7390204;19;20056;-68
2022/05/18 08:52:04;;;;;;;4.45;0.40;;;;;;;18.72;66.47;101713.94;7385633;19;20026;-69
2022/05/18 08:54:40;;;;;;;6.45;0.50;;;;;;;18.80;66.49;101713.81;7388766;19;20652;-68
2022/05/18 08:57:18;;;;;;;6.55;0.40;;;;;;;18.87;66.00;101705.09;7390720;19;20023;-69
2022/05/18 08:59:50;;;;;;;4.85;0.50;;;;;;;18.91;66.35;101709.03;7387623;19;20018;-68
2022/05/18 09:02:23;;;;;;;7.28;0.63;;;;;;;18.99;65.77;101707.09;7388589;19;20021;-69
2022/05/18 09:05:14;;;;;;;4.18;0.82;;;;;;;19.03;64.64;101710.22;7388111;19;20043;-69
2022/05/18 09:10:36;;;;;;;5.82;0.35;;;;;;;19.19;62.49;101712.69;7387463;19;20345;-69
2022/05/18 09:13:05;;;;;;;5.78;0.40;;;;;;;19.40;61.82;101704.69;7388097;19;20019;-69
2022/05/18 09:18:22;;;;;;;7.32;0.80;;;;;;;19.73;61.22;101720.25;7386749;19;20014;-68
2022/05/18 09:21:12;;;;;;;6.57;0.82;;;;;;;19.83;60.53;101716.25;7388976;19;20487;-68
2022/05/18 09:23:43;;;;;;;5.40;0.52;;;;;;;19.75;59.88;101710.22;7386461;19;20485;-68
2022/05/18 09:26:19;;;;;;;6.63;0.35;;;;;;;19.74;60.11;101719.25;7388591;19;20028;-69
2022/05/18 09:28:49;;;;;;;4.15;0.52;;;;;;;19.70;59.67;101710.81;7392272;19;20022;-68
2022/05/18 09:31:21;;;;;;;2.80;0.50;;;;;;;19.65;60.41;101713.22;7387536;19;20019;-68
2022/05/18 09:33:52;;;;;;;5.70;0.32;;;;;;;19.75;60.27;101707.56;7390724;19;20011;-68
2022/05/18 09:36:21;;;;;;;5.05;0.30;;;;;;;19.81;59.28;101699.59;7390320;19;20014;-68
2022/05/18 09:38:56;;;;;;;3.38;0.30;;;;;;;19.92;59.10;101699.06;7387533;19;20011;-69
2022/05/18 09:41:30;;;;;;;5.00;0.28;;;;;;;20.03;59.40;101692.38;7385206;19;20011;-70
2022/05/18 09:44:07;;;;;;;11.00;0.65;;;;;;;20.09;58.52;101683.59;7394035;19;20014;-68
2022/05/18 09:46:42;;;;;;;5.45;0.30;;;;;;;20.15;58.28;101690.84;7394657;19;20011;-68
2022/05/18 09:49:13;;;;;;;5.88;0.57;;;;;;;20.29;58.46;101683.75;7396182;19;20345;-69
2022/05/18 09:51:42;;;;;;;4.95;0.50;;;;;;;20.34;57.87;101692.03;7395593;19;21801;-69
2022/05/18 09:54:10;;;;;;;3.20;0.40;;;;;;;20.35;57.31;101683.00;7394130;19;20022;-69
2022/05/18 09:56:42;;;;;;;5.85;0.50;;;;;;;20.45;57.39;101678.94;7395316;19;20023;-69
2022/05/18 09:59:18;;;;;;;5.28;0.30;;;;;;;20.54;56.96;101681.44;7394084;19;20024;-68
2022/05/18 10:10:02;;;;;;;4.30;0.30;;;;;;;20.86;55.26;101676.28;7396097;19;20015;-69
2022/05/18 10:12:36;;;;;;;5.03;0.50;;;;;;;20.89;55.24;101678.56;7393062;19;20007;-70
2022/05/18 10:15:17;;;;;;;4.25;0.28;;;;;;;20.91;54.37;101673.84;7394884;19;20011;-69
2022/05/18 10:17:50;;;;;;;3.97;0.40;;;;;;;20.92;52.69;101678.16;7391312;19;20118;-68
2022/05/18 10:20:23;;;;;;;2.45;0.40;;;;;;;20.90;53.60;101685.56;7394943;19;20015;-70
2022/05/18 10:22:51;;;;;;;5.15;0.47;;;;;;;21.02;55.14;101672.44;7397468;19;20523;-69
2022/05/18 10:25:24;;;;;;;5.88;0.93;;;;;;;21.11;52.40;101662.38;7393552;19;20015;-68
2022/05/18 10:27:52;;;;;;;4.63;0.57;;;;;;;21.17;52.28;101670.47;7392303;19;20015;-69
2022/05/18 10:30:28;;;;;;;6.50;0.30;;;;;;;21.20;51.47;101658.50;7393680;19;20043;-68
2022/05/18 10:33:02;;;;;;;4.72;0.40;;;;;;;21.22;52.32;101646.59;7393360;19;20018;-68
2022/05/18 10:35:34;;;;;;;5.88;0.40;;;;;;;21.17;52.37;101649.03;7395690;19;20340;-69
2022/05/18 10:38:17;;;;;;;5.80;0.70;;;;;;;21.14;53.31;101641.41;7392630;19;20047;-69
2022/05/18 10:40:46;;;;;;;3.63;0.40;;;;;;;21.22;52.74;101645.75;7391942;19;20014;-68
2022/05/18 10:43:20;;;;;;;4.70;0.55;;;;;;;21.26;51.15;101644.31;7388569;19;20018;-69
2022/05/18 10:46:12;;;;;;;2.00;0.30;;;;;;;21.29;50.11;101644.72;7392141;19;20046;-68
2022/05/18 10:48:49;;;;;;;3.90;0.30;;;;;;;21.35;49.86;101643.09;7393739;19;20006;-69
2022/05/18 10:51:29;;;;;;;1.67;0.25;;;;;;;21.41;50.51;101639.59;7393609;19;20748;-68
2022/05/18 10:54:09;;;;;;;5.45;0.52;;;;;;;21.49;50.60;101644.75;7391530;19;20011;-70
2022/05/18 10:56:37;;;;;;;6.35;0.63;;;;;;;21.60;50.98;101635.28;7392771;19;20457;-70
2022/05/18 10:59:14;;;;;;;5.28;0.57;;;;;;;21.66;50.85;101645.19;7394483;19;20011;-69
2022/05/18 11:01:50;;;;;;;3.33;0.38;;;;;;;21.64;49.62;101648.06;7391764;19;20010;-70
2022/05/18 11:06:56;;;;;;;2.80;0.35;;;;;;;21.57;48.26;101631.19;7390040;19;20030;-68
2022/05/18 11:09:29;;;;;;;1.88;0.30;;;;;;;21.61;48.31;101635.09;7392709;19;20360;-70
2022/05/18 11:12:03;;;;;;;4.20;0.40;;;;;;;21.55;48.06;101632.41;7393725;19;20025;-69
2022/05/18 11:14:34;;;;;;;4.88;0.93;;;;;;;21.50;48.74;101645.59;7394249;19;20575;-67
2022/05/18 11:17:07;;;;;;;4.15;0.68;;;;;;;21.53;49.21;101639.84;7390818;19;20014;-68
2022/05/18 11:19:41;;;;;;;6.78;0.77;;;;;;;21.63;49.50;101642.94;7394170;19;20014;-68
2022/05/18 11:22:26;;;;;;;3.05;0.28;;;;;;;21.70;48.94;101636.53;7393477;19;20025;-68
2022/05/18 11:25:01;;;;;;;2.58;0.20;;;;;;;21.76;49.30;101632.22;7396721;19;20368;-69
2022/05/18 11:28:00;;;;;;;2.80;0.30;;;;;;;21.79;48.59;101625.63;7392562;19;20114;-69
2022/05/18 11:30:34;;;;;;;1.88;0.30;;;;;;;21.85;48.28;101622.91;7389768;19;20014;-69
2022/05/18 11:35:44;;;;;;;2.63;0.30;;;;;;;22.00;48.40;101617.38;7393167;19;20014;-70
2022/05/18 11:38:16;;;;;;;3.78;0.25;;;;;;;22.05;47.00;101618.38;7390358;19;20025;-69
2022/05/18 11:40:49;;;;;;;3.90;0.30;;;;;;;22.08;46.01;101607.28;7389237;19;20010;-69
2022/05/18 11:45:56;;;;;;;1.95;0.30;;;;;;;22.16;43.31;101616.94;7388723;19;19907;-68
2022/05/18 11:48:30;;;;;;;2.38;0.30;;;;;;;22.22;43.07;101612.59;7390650;19;20039;-70
2022/05/18 11:51:09;;;;;;;1.83;0.20;;;;;;;22.25;44.35;101606.81;7389399;19;20003;-70
2022/05/18 11:53:40;;;;;;;3.38;0.40;;;;;;;22.31;43.69;101601.41;7389397;19;20015;-68
2022/05/18 11:56:10;;;;;;;2.08;0.22;;;;;;;22.34;43.44;101600.19;7393087;19;20011;-69
2022/05/18 12:01:45;;;;;;;1.17;0.40;;;;;;;22.36;46.36;101609.66;7393064;19;20011;-69
2022/05/18 12:04:15;;;;;;;1.42;0.20;;;;;;;22.40;45.49;101596.69;7388208;19;20142;-68
2022/05/18 12:06:45;;;;;;;3.08;0.30;;;;;;;22.38;44.04;101588.81;7389957;19;20011;-70
2022/05/18 12:09:15;;;;;;;4.45;0.52;;;;;;;22.39;44.82;101592.34;7388993;19;20298;-69
2022/05/18 12:11:46;;;;;;;3.25;0.60;;;;;;;22.44;44.88;101579.13;7391030;19;20040;-69
2022/05/18 12:14:16;;;;;;;3.75;0.45;;;;;;;22.52;45.74;101574.31;7390433;19;20011;-68
2022/05/18 12:16:50;;;;;;;5.30;0.65;;;;;;;22.59;45.59;101555.50;7391390;19;20015;-68
2022/05/18 12:19:23;;;;;;;2.55;0.43;;;;;;;22.66;45.76;101550.09;7392110;19;20350;-68
2022/05/18 12:21:55;;;;;;;4.90;0.85;;;;;;;22.70;44.77;101556.72;7390376;19;20010;-69
2022/05/18 12:24:25;;;;;;;2.42;0.45;;;;;;;22.73;43.91;101562.50;7390475;19;20038;-71
2022/05/18 12:26:55;;;;;;;2.05;0.30;;;;;;;22.78;43.56;101553.78;7387260;19;20007;-68